| time (UTC) | temp F | wind direction | speed MPH | gust MPH | rain 1hr in | rain 24hr in | rain mn in | humidity % | barometer mb |
| 20260510190007 | 70 | 93 | 8.0 | 17.0 | 0.00 | 0.00 | 0.00 | 31 | 1023.1 |
| 20260510184513 | 73 | 125 | 10.0 | 15.0 | 0.00 | 0.00 | 0.00 | 26 | 1022.8 |
| 20260510183013 | 77 | 97 | 9.0 | 16.0 | 0.00 | 0.00 | 0.00 | 24 | 1022.8 |
| 20260510181516 | 73 | 76 | 6.0 | 15.0 | 0.00 | 0.00 | 0.00 | 27 | 1023.0 |
| 20260510180007 | 73 | 99 | 6.0 | 16.0 | 0.00 | 0.00 | 0.00 | 26 | 1023.0 |
| 20260510174511 | 74 | 69 | 10.0 | 16.0 | 0.00 | 0.00 | 0.00 | 25 | 1022.9 |
| 20260510173013 | 74 | 131 | 11.0 | 23.0 | 0.00 | 0.00 | 0.00 | 24 | 1022.8 |
| 20260510171514 | 73 | 94 | 2.0 | 13.0 | 0.00 | 0.00 | 0.00 | 22 | 1022.6 |
| 20260510170020 | 73 | 38 | 4.0 | 13.0 | 0.00 | 0.00 | 0.00 | 22 | 1022.6 |
| 20260510164506 | 74 | 132 | 4.0 | 12.0 | 0.00 | 0.00 | 0.00 | 22 | 1022.6 |
| 20260510163016 | 73 | 127 | 5.0 | 11.0 | 0.00 | 0.00 | 0.00 | 23 | 1022.6 |
| 20260510161519 | 74 | 47 | 6.0 | 12.0 | 0.00 | 0.00 | 0.00 | 23 | 1022.7 |
| 20260510160034 | 71 | 146 | 4.0 | 9.0 | 0.00 | 0.00 | 0.00 | 25 | 1022.6 |
| 20260510154523 | 71 | 83 | 4.0 | 9.0 | 0.00 | 0.00 | 0.00 | 25 | 1022.4 |
| 20260510153033 | 70 | 69 | 4.0 | 10.0 | 0.00 | 0.00 | 0.00 | 27 | 1022.5 |
| 20260510151520 | 70 | 132 | 5.0 | 11.0 | 0.00 | 0.00 | 0.00 | 27 | 1022.6 |
| 20260510150020 | 68 | 108 | 3.0 | 10.0 | 0.00 | 0.00 | 0.00 | 30 | 1022.6 |
| 20260510144520 | 65 | 113 | 5.0 | 11.0 | 0.00 | 0.00 | 0.00 | 32 | 1022.5 |
| 20260510143023 | 66 | 86 | 8.0 | 12.0 | 0.00 | 0.00 | 0.00 | 31 | 1022.3 |
| 20260510141530 | 63 | 116 | 8.0 | 11.0 | 0.00 | 0.00 | 0.00 | 35 | 1022.4 |
| 20260510140026 | 60 | 72 | 6.0 | 11.0 | 0.00 | 0.00 | 0.00 | 38 | 1022.4 |
| 20260510134525 | 59 | 75 | 7.0 | 16.0 | 0.00 | 0.00 | 0.00 | 38 | 1022.2 |
| 20260510133019 | 59 | 98 | 7.0 | 15.0 | 0.00 | 0.00 | 0.00 | 37 | 1022.1 |
| 20260510131510 | 59 | 63 | 8.0 | 18.0 | 0.00 | 0.00 | 0.00 | 36 | 1021.7 |
| 20260510130012 | 59 | 96 | 13.0 | 19.0 | 0.00 | 0.00 | 0.00 | 34 | 1021.5 |
| 20260510124524 | 61 | 67 | 13.0 | 18.0 | 0.00 | 0.00 | 0.00 | 31 | 1021.6 |
| 20260510123031 | 62 | 67 | 4.0 | 13.0 | 0.00 | 0.00 | 0.00 | 29 | 1021.2 |
| 20260510121530 | 63 | 355 | 5.0 | 13.0 | 0.00 | 0.00 | 0.00 | 28 | 1021.1 |
| 20260510120022 | 63 | 28 | 7.0 | 16.0 | 0.00 | 0.00 | 0.00 | 28 | 1020.9 |
| 20260510114537 | 64 | 13 | 7.0 | 13.0 | 0.00 | 0.00 | 0.00 | 27 | 1020.8 |
| 20260510113035 | 64 | 329 | 9.0 | 16.0 | 0.00 | 0.00 | 0.00 | 27 | 1020.6 |
| 20260510111531 | 65 | 311 | 16.0 | 25.0 | 0.00 | 0.00 | 0.00 | 26 | 1021.1 |
| 20260510110030 | 64 | 304 | 12.0 | 21.0 | 0.00 | 0.00 | 0.00 | 23 | 1020.7 |
| 20260510104534 | 64 | 277 | 10.0 | 15.0 | 0.00 | 0.00 | 0.00 | 23 | 1020.6 |
| 20260510103029 | 62 | 306 | 7.0 | 11.0 | 0.00 | 0.00 | 0.00 | 24 | 1020.3 |
| 20260510101528 | 63 | 328 | 2.0 | 9.0 | 0.00 | 0.00 | 0.00 | 22 | 1020.1 |
| 20260510100027 | 63 | 44 | 3.0 | 6.0 | 0.00 | 0.00 | 0.00 | 22 | 1019.7 |
| 20260510094537 | 62 | 360 | 5.0 | 12.0 | 0.00 | 0.00 | 0.00 | 23 | 1019.6 |
| 20260510093029 | 60 | 355 | 1.0 | 6.0 | 0.00 | 0.00 | 0.00 | 23 | 1019.7 |
| 20260510091507 | 60 | 329 | 1.0 | 3.0 | 0.00 | 0.00 | 0.00 | 22 | 1019.3 |
| 20260510090024 | 62 | 307 | 0.0 | 4.0 | 0.00 | 0.00 | 0.00 | 21 | 1018.9 |
| 20260510084526 | 63 | 312 | 2.0 | 12.0 | 0.00 | 0.00 | 0.00 | 21 | 1018.6 |
| 20260510083022 | 64 | 338 | 7.0 | 14.0 | 0.00 | 0.00 | 0.00 | 20 | 1018.2 |
| 20260510081535 | 64 | 5 | 8.0 | 12.0 | 0.00 | 0.00 | 0.00 | 20 | 1018.0 |
| 20260510080018 | 64 | 360 | 6.0 | 13.0 | 0.00 | 0.00 | 0.00 | 19 | 1018.0 |
| 20260510074532 | 62 | 21 | 6.0 | 10.0 | 0.00 | 0.00 | 0.00 | 19 | 1018.0 |
| 20260510073010 | 61 | 31 | 2.0 | 5.0 | 0.00 | 0.00 | 0.00 | 19 | 1018.1 |
| 20260510071508 | 62 | 337 | 2.0 | 6.0 | 0.00 | 0.00 | 0.00 | 17 | 1018.0 |
| 20260510070013 | 63 | 360 | 5.0 | 9.0 | 0.00 | 0.00 | 0.00 | 17 | 1017.9 |
| 20260510064528 | 63 | 5 | 4.0 | 8.0 | 0.00 | 0.00 | 0.00 | 17 | 1017.7 |
| 20260510063017 | 65 | 31 | 4.0 | 8.0 | 0.00 | 0.00 | 0.00 | 17 | 1017.6 |
| 20260510061526 | 61 | 21 | 4.0 | 7.0 | 0.00 | 0.00 | 0.00 | 20 | 1017.6 |
| 20260510060013 | 61 | 5 | 6.0 | 9.0 | 0.00 | 0.00 | 0.00 | 19 | 1017.7 |
| 20260510054506 | 63 | 5 | 4.0 | 8.0 | 0.00 | 0.00 | 0.00 | 18 | 1017.6 |
| 20260510053014 | 62 | 352 | 6.0 | 9.0 | 0.00 | 0.00 | 0.00 | 19 | 1017.6 |
| 20260510051531 | 63 | 5 | 3.0 | 6.0 | 0.00 | 0.00 | 0.00 | 18 | 1017.4 |
| 20260510050028 | 64 | 346 | 3.0 | 7.0 | 0.00 | 0.00 | 0.00 | 18 | 1017.3 |
| 20260510044536 | 60 | 53 | 4.0 | 6.0 | 0.00 | 0.00 | 0.00 | 20 | 1017.1 |
| 20260510043031 | 59 | 29 | 2.0 | 4.0 | 0.00 | 0.00 | 0.00 | 20 | 1017.2 |
| 20260510041526 | 61 | 162 | 1.0 | 4.0 | 0.00 | 0.00 | 0.00 | 19 | 1017.2 |
| 20260510040023 | 65 | 194 | 2.0 | 3.0 | 0.00 | 0.00 | 0.00 | 17 | 1017.0 |
| 20260510034507 | 66 | 360 | 2.0 | 5.0 | 0.00 | 0.00 | 0.00 | 16 | 1016.9 |
| 20260510033035 | 66 | 355 | 1.0 | 6.0 | 0.00 | 0.00 | 0.00 | 16 | 1016.8 |
| 20260510031508 | 67 | 338 | 4.0 | 8.0 | 0.00 | 0.00 | 0.00 | 16 | 1016.5 |
| 20260510030017 | 68 | 343 | 5.0 | 9.0 | 0.00 | 0.00 | 0.00 | 15 | 1016.4 |
| 20260510024534 | 67 | 331 | 5.0 | 10.0 | 0.00 | 0.00 | 0.00 | 15 | 1016.1 |
| 20260510023015 | 69 | 352 | 3.0 | 7.0 | 0.00 | 0.00 | 0.00 | 15 | 1015.9 |
| 20260510021532 | 70 | 346 | 3.0 | 8.0 | 0.00 | 0.00 | 0.00 | 14 | 1015.8 |
| 20260510020012 | 73 | 5 | 3.0 | 13.0 | 0.00 | 0.00 | 0.00 | 13 | 1015.7 |
| 20260510014516 | 75 | 337 | 7.0 | 19.0 | 0.00 | 0.00 | 0.00 | 12 | 1015.7 |
| 20260510013027 | 76 | 317 | 2.0 | 8.0 | 0.00 | 0.00 | 0.00 | 12 | 1015.4 |
| 20260510011529 | 77 | 350 | 3.0 | 16.0 | 0.00 | 0.00 | 0.00 | 11 | 1015.4 |
| 20260510010007 | 76 | 312 | 4.0 | 17.0 | 0.00 | 0.00 | 0.00 | 12 | 1015.3 |
| 20260510004509 | 77 | 305 | 6.0 | 12.0 | 0.00 | 0.00 | 0.00 | 12 | 1015.1 |
| 20260510003013 | 79 | 257 | 6.0 | 12.0 | 0.00 | 0.00 | 0.00 | 11 | 1015.1 |
| 20260510001522 | 78 | 235 | 8.0 | 24.0 | 0.00 | 0.00 | 0.00 | 12 | 1015.5 |
| 20260510000026 | 78 | 251 | 11.0 | 19.0 | 0.00 | 0.00 | 0.00 | 11 | 1015.3 |
| 20260509234511 | 80 | 229 | 10.0 | 19.0 | 0.00 | 0.00 | 0.00 | 11 | 1015.3 |
| 20260509233016 | 81 | 288 | 10.0 | 20.0 | 0.00 | 0.00 | 0.00 | 10 | 1015.5 |
| 20260509231513 | 81 | 213 | 8.0 | 19.0 | 0.00 | 0.00 | 0.00 | 11 | 1015.6 |
| 20260509230027 | 81 | 327 | 7.0 | 19.0 | 0.00 | 0.00 | 0.00 | 11 | 1015.7 |
| 20260509224528 | 82 | 329 | 5.0 | 20.0 | 0.00 | 0.00 | 0.00 | 10 | 1015.8 |
| 20260509223019 | 84 | 238 | 14.0 | 23.0 | 0.00 | 0.00 | 0.00 | 10 | 1015.9 |
| 20260509221516 | 83 | 234 | 10.0 | 19.0 | 0.00 | 0.00 | 0.00 | 10 | 1016.1 |
| 20260509220021 | 83 | 292 | 8.0 | 25.0 | 0.00 | 0.00 | 0.00 | 10 | 1016.3 |
| 20260509214518 | 83 | 270 | 12.0 | 25.0 | 0.00 | 0.00 | 0.00 | 10 | 1016.6 |
| 20260509213014 | 83 | 245 | 8.0 | 19.0 | 0.00 | 0.00 | 0.00 | 11 | 1016.7 |
| 20260509211527 | 83 | 277 | 13.0 | 20.0 | 0.00 | 0.00 | 0.00 | 11 | 1017.1 |
| 20260509210007 | 82 | 270 | 14.0 | 26.0 | 0.00 | 0.00 | 0.00 | 11 | 1017.4 |
| 20260509204516 | 83 | 283 | 14.0 | 25.0 | 0.00 | 0.00 | 0.00 | 11 | 1017.6 |
| 20260509203018 | 82 | 261 | 7.0 | 26.0 | 0.00 | 0.00 | 0.00 | 12 | 1017.7 |
| 20260509201517 | 82 | 288 | 11.0 | 25.0 | 0.00 | 0.00 | 0.00 | 11 | 1017.9 |
| 20260509200019 | 82 | 309 | 11.0 | 21.0 | 0.00 | 0.00 | 0.00 | 12 | 1018.0 |
| 20260509194516 | 81 | 300 | 9.0 | 26.0 | 0.00 | 0.00 | 0.00 | 12 | 1018.2 |
| 20260509193008 | 80 | 256 | 6.0 | 28.0 | 0.00 | 0.00 | 0.00 | 12 | 1018.4 |
| 20260509191514 | 81 | 302 | 12.0 | 19.0 | 0.00 | 0.00 | 0.00 | 12 | 1018.4 |